Time;durP1;ratioP1;P1;durP2;ratioP2;P2;SDS_P1;SDS_P2;PMS_P1;PMS_P2;Temp;Humidity;BMP_temperature;BMP_pressure;BME280_temperature;BME280_humidity;BME280_pressure;Samples;Min_cycle;Max_cycle;Signal;HPM_P1;HPM_P2
2022/11/10 00:00:43;;;;;;;3.05;2.42;;;;;;;20.06;58.09;97005.00;10520975;28;20405;-46
2022/11/10 00:06:21;;;;;;;2.83;2.50;;;;;;;20.04;58.09;97013.44;10529636;28;20102;-44
2022/11/10 00:12:00;;;;;;;2.92;2.63;;;;;;;20.04;58.09;97009.94;10547765;28;20036;-45
2022/11/10 00:17:38;;;;;;;2.78;2.30;;;;;;;20.03;58.07;97011.88;10520185;28;20056;-48
2022/11/10 00:23:16;;;;;;;4.18;2.45;;;;;;;20.02;58.15;97014.88;10493214;28;20051;-45
2022/11/10 00:28:54;;;;;;;3.25;2.70;;;;;;;20.01;58.09;97024.09;10503060;28;20102;-44
2022/11/10 00:34:32;;;;;;;3.03;2.40;;;;;;;20.00;58.05;97011.72;10491048;28;20458;-49
2022/11/10 00:40:11;;;;;;;3.10;2.80;;;;;;;19.98;58.05;97009.31;10535766;28;20052;-46
2022/11/10 00:45:49;;;;;;;3.20;2.70;;;;;;;19.99;58.03;97026.34;10528080;28;20047;-47
2022/11/10 00:51:28;;;;;;;3.13;2.83;;;;;;;19.97;57.92;97031.28;10525454;28;20432;-49
2022/11/10 00:57:07;;;;;;;2.70;2.50;;;;;;;19.95;57.89;97035.09;10520220;28;20060;-45
2022/11/10 01:02:45;;;;;;;3.05;2.75;;;;;;;19.95;57.89;97034.28;10534728;28;20044;-46
2022/11/10 01:08:24;;;;;;;2.88;2.47;;;;;;;19.94;57.85;97040.81;10532401;28;20548;-47
2022/11/10 01:14:02;;;;;;;2.67;2.38;;;;;;;19.93;57.77;97050.03;10537050;28;20052;-46
2022/11/10 01:19:41;;;;;;;3.33;2.38;;;;;;;19.92;57.83;97046.56;10525822;28;20064;-45
2022/11/10 01:25:19;;;;;;;;;;;;;;;19.91;57.99;97052.28;10523335;28;20380;-44
2022/11/10 01:31:03;;;;;;;2.67;2.30;;;;;;;19.90;57.80;97053.41;10528624;28;19924;-44
2022/11/10 01:36:41;;;;;;;3.00;2.70;;;;;;;19.89;57.94;97049.88;10523504;28;20067;-45
2022/11/10 01:42:28;;;;;;;2.45;2.22;;;;;;;19.87;57.75;97049.41;10534118;28;20052;-47
2022/11/10 01:48:08;;;;;;;3.28;2.58;;;;;;;19.87;57.74;97052.09;10508119;28;20063;-45
2022/11/10 01:53:50;;;;;;;2.60;2.40;;;;;;;19.87;57.71;97060.22;10524997;28;20044;-44
2022/11/10 01:59:31;;;;;;;2.83;2.42;;;;;;;19.85;57.79;97065.16;10518038;28;20052;-45
2022/11/10 02:05:10;;;;;;;2.78;2.58;;;;;;;19.85;57.70;97070.56;10528491;28;20048;-59
2022/11/10 02:10:49;;;;;;;2.30;2.10;;;;;;;19.84;57.76;97068.19;10493590;28;20052;-59
2022/11/10 02:16:28;;;;;;;2.60;2.40;;;;;;;19.82;57.67;97082.03;10512454;28;20053;-59
2022/11/10 02:22:06;;;;;;;2.42;2.13;;;;;;;19.82;57.67;97082.03;10513150;28;20044;-59
2022/11/10 02:27:44;;;;;;;3.78;2.45;;;;;;;19.80;57.73;97078.84;10521100;28;20059;-58
2022/11/10 02:33:23;;;;;;;2.63;2.38;;;;;;;19.80;57.68;97088.84;10529230;28;20520;-58
2022/11/10 02:39:01;;;;;;;2.40;2.20;;;;;;;19.78;57.75;97094.59;10513233;28;20082;-59
2022/11/10 02:44:39;;;;;;;2.25;2.05;;;;;;;19.76;57.65;97096.81;10519082;28;20051;-57
2022/11/10 02:50:17;;;;;;;2.47;2.10;;;;;;;19.77;57.65;97100.31;10492100;28;20157;-59
2022/11/10 02:55:55;;;;;;;2.58;2.38;;;;;;;19.76;57.78;97110.34;10518544;28;20052;-59
2022/11/10 03:01:34;;;;;;;2.53;2.33;;;;;;;19.74;57.66;97140.38;10545768;28;20043;-59
2022/11/10 03:07:12;;;;;;;2.87;2.23;;;;;;;19.73;57.50;97143.41;10498801;28;20529;-58
2022/11/10 03:12:53;;;;;;;2.45;2.25;;;;;;;19.73;57.59;97146.09;10536005;28;20059;-59
2022/11/10 03:18:31;;;;;;;2.58;2.38;;;;;;;19.71;57.64;97153.69;10517921;28;20056;-58
2022/11/10 03:24:09;;;;;;;2.63;1.98;;;;;;;19.71;57.64;97156.41;10522574;28;20097;-55
2022/11/10 03:29:47;;;;;;;2.38;2.17;;;;;;;19.69;57.62;97159.41;10548763;28;20044;-59
2022/11/10 03:35:26;;;;;;;2.30;2.10;;;;;;;19.69;57.55;97158.63;10525685;28;20060;-58
2022/11/10 03:41:04;;;;;;;4.13;2.50;;;;;;;19.67;57.60;97169.75;10532130;28;20060;-59
2022/11/10 03:46:42;;;;;;;2.50;2.30;;;;;;;19.67;57.51;97183.25;10503630;28;20052;-56
2022/11/10 03:52:20;;;;;;;2.38;2.17;;;;;;;19.65;57.49;97171.19;10506209;28;20082;-59
2022/11/10 03:58:02;;;;;;;2.33;2.10;;;;;;;19.64;57.60;97166.88;10521574;28;20059;-59
2022/11/10 04:03:40;;;;;;;2.25;2.05;;;;;;;19.63;57.49;97178.81;10547718;28;20041;-58
2022/11/10 04:09:18;;;;;;;2.20;2.05;;;;;;;19.63;57.51;97193.13;10534818;28;20097;-59
2022/11/10 04:20:56;;;;;;;2.40;2.10;;;;;;;19.61;57.44;97194.56;10523347;28;20446;-58
2022/11/10 04:26:39;;;;;;;2.10;1.90;;;;;;;19.61;57.37;97205.38;10516511;28;20060;-59
2022/11/10 04:32:17;;;;;;;2.20;2.00;;;;;;;19.60;57.39;97204.56;10518739;28;20098;-59
2022/11/10 04:37:55;;;;;;;1.85;1.75;;;;;;;19.58;57.34;97204.06;10514037;28;20040;-58
2022/11/10 04:43:34;;;;;;;2.17;1.98;;;;;;;19.57;57.28;97218.72;10521330;28;20040;-59
2022/11/10 04:49:12;;;;;;;1.95;1.85;;;;;;;19.56;57.39;97231.44;10551298;28;20040;-59
2022/11/10 04:54:51;;;;;;;2.03;1.92;;;;;;;19.55;57.34;97243.34;10532371;28;20426;-58
2022/11/10 05:00:29;;;;;;;1.90;1.80;;;;;;;19.55;57.33;97242.53;10541737;28;20093;-59
2022/11/10 05:06:08;;;;;;;1.95;1.85;;;;;;;19.53;57.29;97250.16;10532818;28;20407;-59
2022/11/10 05:11:47;;;;;;;1.98;1.88;;;;;;;19.53;57.24;97260.97;10515837;28;20040;-59
2022/11/10 05:17:25;;;;;;;2.47;1.98;;;;;;;19.52;57.33;97279.09;10547026;28;20055;-59
2022/11/10 05:29:00;;;;;;;2.20;2.00;;;;;;;19.52;57.58;97281.00;10531595;28;20055;-58
2022/11/10 05:34:38;;;;;;;2.00;1.87;;;;;;;19.51;58.12;97299.13;10475554;28;20049;-60
2022/11/10 05:40:16;;;;;;;2.40;2.20;;;;;;;19.51;58.06;97309.94;10513765;28;20344;-59
2022/11/10 05:45:55;;;;;;;2.58;2.22;;;;;;;19.51;57.92;97307.22;10531224;28;20056;-59
2022/11/10 05:51:33;;;;;;;3.00;2.05;;;;;;;19.52;57.77;97329.63;10517993;28;20048;-58
2022/11/10 05:57:12;;;;;;;3.60;2.22;;;;;;;19.52;57.76;97337.75;10538210;28;20059;-57
2022/11/10 06:02:58;;;;;;;4.00;2.45;;;;;;;19.52;57.75;97338.56;10499812;28;20097;-58
2022/11/10 06:08:36;;;;;;;2.42;2.00;;;;;;;19.51;57.60;97353.16;10505203;28;20408;-58
2022/11/10 06:14:14;;;;;;;2.83;2.15;;;;;;;19.52;57.63;97365.59;10505185;28;20499;-58
2022/11/10 06:19:52;;;;;;;2.67;2.05;;;;;;;19.52;56.67;97383.69;10501931;28;20056;-59
2022/11/10 06:25:33;;;;;;;2.67;2.15;;;;;;;19.52;57.29;97384.50;10529723;28;20122;-58
2022/11/10 06:31:11;;;;;;;3.22;2.30;;;;;;;19.52;57.20;97395.31;10514906;28;20059;-52
2022/11/10 06:36:49;;;;;;;3.03;2.38;;;;;;;19.55;57.23;97408.19;10521591;28;20052;-58
2022/11/10 06:42:27;;;;;;;3.28;2.30;;;;;;;19.56;57.17;97425.19;10553835;28;20522;-54
2022/11/10 06:48:12;;;;;;;2.78;2.40;;;;;;;19.56;57.23;97431.41;10520453;28;20049;-58
2022/11/10 06:53:51;;;;;;;2.42;2.10;;;;;;;19.58;57.25;97438.41;10518849;28;20052;-59
2022/11/10 06:59:29;;;;;;;2.30;2.10;;;;;;;19.59;57.21;97457.03;10527098;28;20499;-58
2022/11/10 07:05:07;;;;;;;3.15;2.28;;;;;;;19.61;57.17;97454.00;10527507;28;20414;-58
2022/11/10 07:10:51;;;;;;;3.42;2.45;;;;;;;19.61;57.15;97473.72;10494957;28;20560;-58
2022/11/10 07:16:30;;;;;;;2.53;2.33;;;;;;;19.52;53.54;97478.25;10505711;28;20048;-58
2022/11/10 07:22:08;;;;;;;5.35;2.45;;;;;;;19.55;55.36;97489.25;10524813;28;20420;-58
2022/11/10 07:27:55;;;;;;;4.30;2.70;;;;;;;19.60;55.81;97501.06;10521038;28;20048;-59
2022/11/10 07:33:34;;;;;;;3.95;2.38;;;;;;;19.62;55.70;97502.38;10506069;28;20299;-58
2022/11/10 07:39:12;;;;;;;3.97;2.47;;;;;;;19.64;55.80;97502.03;10521437;28;20052;-52
2022/11/10 07:44:50;;;;;;;3.65;2.33;;;;;;;19.66;55.97;97522.25;10513824;28;20044;-58
2022/11/10 07:50:29;;;;;;;4.88;2.67;;;;;;;19.69;56.09;97531.66;10516856;28;20408;-58
2022/11/10 07:56:07;;;;;;;;;;;;;;;19.70;56.24;97538.69;10511328;28;20055;-58
2022/11/10 08:01:46;;;;;;;5.70;2.88;;;;;;;19.71;56.14;97553.78;10522183;28;19921;-58
2022/11/10 08:07:24;;;;;;;7.75;3.15;;;;;;;19.72;56.27;97564.31;10518566;28;20063;-58
2022/11/10 08:13:05;;;;;;;6.43;2.63;;;;;;;19.74;56.18;97570.22;10508466;28;20051;-58
2022/11/10 08:18:43;;;;;;;7.88;3.55;;;;;;;19.77;56.33;97576.91;10510458;28;20074;-58
2022/11/10 08:24:21;;;;;;;6.95;3.30;;;;;;;19.79;56.31;97588.22;10533098;28;20491;-57
2022/11/10 08:29:59;;;;;;;8.73;3.92;;;;;;;19.81;56.31;97598.72;10528084;28;20059;-58
2022/11/10 08:35:40;;;;;;;6.70;3.15;;;;;;;19.82;56.35;97603.84;10525187;28;20060;-58
2022/11/10 08:41:18;;;;;;;5.20;3.05;;;;;;;19.85;56.40;97629.44;10538417;28;20503;-58
2022/11/10 08:46:56;;;;;;;4.25;2.80;;;;;;;19.85;56.37;97637.56;10510791;28;20048;-57
2022/11/10 08:52:35;;;;;;;6.97;3.22;;;;;;;19.87;56.62;97636.16;10502216;28;20123;-58
2022/11/10 08:58:14;;;;;;;;;;;;;;;19.87;56.54;97649.66;10516874;28;20083;-59
2022/11/10 09:03:52;;;;;;;5.35;2.85;;;;;;;19.90;56.38;97661.78;10531969;28;19920;-56
2022/11/10 09:09:31;;;;;;;5.95;3.25;;;;;;;19.92;56.38;97675.81;10522670;28;20245;-57
2022/11/10 09:15:10;;;;;;;5.18;3.35;;;;;;;19.92;56.45;97682.00;10519522;28;20118;-59
2022/11/10 09:20:48;;;;;;;7.20;3.60;;;;;;;19.95;56.58;97702.22;10515636;28;20063;-59
2022/11/10 09:26:26;;;;;;;7.60;3.13;;;;;;;19.97;56.75;97704.63;10552454;28;20391;-58
2022/11/10 09:32:05;;;;;;;6.65;2.88;;;;;;;19.99;56.84;97714.03;10514367;28;20098;-58
2022/11/10 09:37:43;;;;;;;5.35;2.65;;;;;;;20.00;56.92;97706.75;10531982;28;20380;-55
2022/11/10 09:43:37;;;;;;;5.45;2.95;;;;;;;20.01;56.99;97711.03;10483872;28;20052;-59
2022/11/10 09:49:55;;;;;;;4.90;2.60;;;;;;;20.04;57.08;97713.94;10514314;28;20044;-58
2022/11/10 09:55:48;;;;;;;5.60;2.88;;;;;;;20.05;56.97;97723.66;10505508;28;20055;-59
2022/11/10 10:01:33;;;;;;;4.68;2.65;;;;;;;20.06;56.95;97736.06;10511849;28;20044;-59
2022/11/10 10:07:19;;;;;;;5.57;2.58;;;;;;;20.08;56.92;97733.84;10522613;28;20431;-58
2022/11/10 10:13:16;;;;;;;5.65;2.67;;;;;;;20.09;56.83;97730.06;10526184;28;20490;-58
2022/11/10 10:19:22;;;;;;;4.95;2.60;;;;;;;20.11;56.84;97727.03;10513895;28;20071;-57
2022/11/10 10:25:02;;;;;;;4.13;2.38;;;;;;;20.13;56.84;97730.22;10522172;28;20090;-59
2022/11/10 10:30:42;;;;;;;3.72;2.30;;;;;;;20.14;56.77;97738.03;10508718;28;20052;-58
2022/11/10 10:36:30;;;;;;;3.72;2.33;;;;;;;20.15;56.75;97739.66;10537078;28;20074;-58
2022/11/10 10:42:12;;;;;;;;;;;;;;;20.16;56.82;97740.44;10529303;28;20463;-59
2022/11/10 10:47:52;;;;;;;5.10;2.67;;;;;;;20.19;56.68;97739.84;10495967;28;19920;-58
2022/11/10 10:53:31;;;;;;;4.13;2.38;;;;;;;20.21;56.67;97740.34;10521496;28;20499;-58
2022/11/10 10:59:21;;;;;;;3.50;2.53;;;;;;;20.22;56.74;97749.25;10529274;28;20063;-58
2022/11/10 11:05:12;;;;;;;4.40;2.40;;;;;;;20.24;56.60;97750.53;10500648;28;20052;-58
2022/11/10 11:10:50;;;;;;;3.75;2.38;;;;;;;20.24;56.70;97753.25;10529680;28;20074;-58
2022/11/10 11:16:44;;;;;;;4.15;2.40;;;;;;;20.27;56.46;97758.06;10509061;28;20075;-59
2022/11/10 11:22:37;;;;;;;5.03;2.65;;;;;;;20.27;56.56;97758.06;10522295;28;20055;-59
2022/11/10 11:28:40;;;;;;;3.88;2.22;;;;;;;20.29;56.45;97769.38;10505453;28;20060;-58
2022/11/10 11:34:27;;;;;;;3.65;2.60;;;;;;;20.29;56.45;97755.84;10504796;28;20077;-58
2022/11/10 11:40:25;;;;;;;5.18;2.50;;;;;;;20.31;56.52;97763.66;10500226;28;20052;-58
2022/11/10 11:46:16;;;;;;;4.15;2.20;;;;;;;20.33;56.51;97756.84;10505608;28;20052;-58
2022/11/10 11:52:04;;;;;;;3.90;2.33;;;;;;;20.32;56.39;97766.03;10497796;28;20693;-55
2022/11/10 11:58:13;;;;;;;5.40;2.40;;;;;;;20.35;56.64;97753.81;10513513;28;20049;-58
2022/11/10 12:04:16;;;;;;;4.05;2.50;;;;;;;20.37;56.30;97767.06;10505103;28;20051;-58
2022/11/10 12:10:30;;;;;;;3.42;1.95;;;;;;;20.37;56.33;97772.47;10539879;28;20049;-56
2022/11/10 12:16:16;;;;;;;2.58;1.90;;;;;;;20.38;56.38;97779.47;10521834;28;20055;-58
2022/11/10 12:22:05;;;;;;;2.80;1.77;;;;;;;20.39;56.37;97787.28;10498063;28;20105;-58
2022/11/10 12:28:08;;;;;;;2.88;2.08;;;;;;;20.40;56.12;97780.75;10521342;28;20109;-58
2022/11/10 12:33:52;;;;;;;3.42;2.20;;;;;;;20.42;56.28;97781.25;10515404;28;20552;-58
2022/11/10 12:39:47;;;;;;;3.35;1.90;;;;;;;20.44;56.32;97791.78;10504771;28;20040;-59
2022/11/10 12:45:34;;;;;;;3.03;1.88;;;;;;;20.43;56.15;97793.69;10503289;28;20562;-58
2022/11/10 12:51:18;;;;;;;2.27;1.80;;;;;;;20.43;56.34;97790.97;10482599;28;20048;-59
2022/11/10 12:57:02;;;;;;;3.03;2.20;;;;;;;20.44;56.21;97800.69;10512987;28;20427;-58
2022/11/10 13:02:43;;;;;;;2.88;1.75;;;;;;;20.47;56.13;97799.28;10497289;28;20082;-58
2022/11/10 13:08:31;;;;;;;2.45;2.00;;;;;;;20.47;56.14;97810.13;10505765;28;20114;-59
2022/11/10 13:14:28;;;;;;;2.03;1.80;;;;;;;20.47;56.17;97816.34;10533096;28;20048;-58
2022/11/10 13:20:38;;;;;;;2.50;1.88;;;;;;;20.48;56.10;97823.34;10528274;28;20286;-58
2022/11/10 13:26:38;;;;;;;2.80;1.80;;;;;;;20.49;56.18;97829.56;10542700;28;20404;-58
2022/11/10 13:32:29;;;;;;;3.05;1.75;;;;;;;20.50;56.00;97823.84;10537839;28;20051;-59
2022/11/10 13:38:18;;;;;;;3.20;1.50;;;;;;;20.48;52.08;97823.34;10532209;28;20487;-58
2022/11/10 13:43:56;;;;;;;3.08;1.25;;;;;;;20.29;46.71;97830.81;10494687;28;20072;-59
2022/11/10 13:49:59;;;;;;;2.65;0.75;;;;;;;20.20;44.73;97838.03;10533177;28;20063;-59
2022/11/10 13:56:02;;;;;;;3.45;1.02;;;;;;;20.11;43.44;97836.06;10519839;28;20048;-58
2022/11/10 14:01:41;;;;;;;1.52;0.80;;;;;;;20.04;42.43;97840.28;10533968;28;20055;-57
2022/11/10 14:07:19;;;;;;;2.08;0.70;;;;;;;20.00;42.43;97848.19;10533968;28;20126;-55
2022/11/10 14:13:04;;;;;;;;;;;;;;;19.88;41.36;97853.31;10518567;28;20052;-56
2022/11/10 14:18:49;;;;;;;3.38;1.10;;;;;;;19.90;44.18;97860.00;10493553;28;20410;-57
2022/11/10 14:24:32;;;;;;;2.10;1.00;;;;;;;20.06;45.88;97859.69;10505105;28;20044;-57
2022/11/10 14:30:23;;;;;;;2.38;1.20;;;;;;;20.17;46.25;97871.94;10492737;28;20048;-58
2022/11/10 14:36:04;;;;;;;4.72;1.10;;;;;;;20.22;46.75;97879.13;10517676;28;20435;-57
2022/11/10 14:41:49;;;;;;;3.00;1.23;;;;;;;20.25;47.13;97884.75;10515723;28;20060;-58
2022/11/10 14:47:32;;;;;;;3.97;1.00;;;;;;;20.29;47.49;97896.56;10515905;28;20063;-56
2022/11/10 14:53:30;;;;;;;2.75;1.00;;;;;;;20.30;47.76;97900.84;10504525;28;20036;-57
2022/11/10 14:59:10;;;;;;;4.22;1.00;;;;;;;20.32;48.03;97900.56;10502930;28;20056;-58
2022/11/10 15:04:50;;;;;;;2.65;1.00;;;;;;;20.34;48.51;97907.25;10520007;28;20492;-58
2022/11/10 15:10:49;;;;;;;1.77;0.73;;;;;;;20.35;48.82;97918.91;10525676;28;20093;-57
2022/11/10 15:16:38;;;;;;;3.08;1.13;;;;;;;20.36;49.00;97920.50;10525895;28;20048;-57
2022/11/10 15:22:18;;;;;;;2.30;1.00;;;;;;;20.38;49.28;97929.13;10518686;28;20049;-57
2022/11/10 15:27:59;;;;;;;2.95;0.93;;;;;;;20.39;49.52;97929.94;10503005;28;20044;-58
2022/11/10 15:33:45;;;;;;;1.42;0.93;;;;;;;20.40;49.58;97931.53;10538069;28;20060;-58
2022/11/10 15:39:25;;;;;;;1.77;0.93;;;;;;;20.41;49.76;97941.25;10528724;28;20074;-57
2022/11/10 15:45:04;;;;;;;1.88;1.00;;;;;;;20.41;49.88;97947.47;10509356;28;20059;-57
2022/11/10 15:50:43;;;;;;;;;;;;;;;20.41;49.97;97952.88;10515409;28;20064;-58
2022/11/10 15:56:23;;;;;;;1.90;0.85;;;;;;;20.43;50.22;97972.31;10511405;28;19924;-58
2022/11/10 16:02:01;;;;;;;2.00;1.13;;;;;;;20.44;50.35;97975.81;10499241;28;20056;-58
2022/11/10 16:07:39;;;;;;;1.42;0.98;;;;;;;20.44;50.42;97984.75;10547638;28;20093;-58
2022/11/10 16:13:26;;;;;;;2.58;1.33;;;;;;;20.44;50.52;97989.34;10517309;28;20048;-57
2022/11/10 16:19:04;;;;;;;2.83;1.10;;;;;;;20.46;50.51;98003.41;10500844;28;20566;-58
2022/11/10 16:24:43;;;;;;;1.20;1.05;;;;;;;20.48;50.52;98006.59;10509618;28;20048;-58
2022/11/10 16:30:21;;;;;;;2.63;1.30;;;;;;;20.47;50.55;98007.72;10533266;28;20414;-58
2022/11/10 16:35:59;;;;;;;1.80;1.02;;;;;;;20.48;50.63;98012.00;10518288;28;20499;-58
2022/11/10 16:41:37;;;;;;;2.65;1.17;;;;;;;20.48;51.03;98023.66;10505751;28;20061;-58
2022/11/10 16:47:18;;;;;;;2.17;1.10;;;;;;;20.51;51.38;98033.09;10529577;28;20048;-58
2022/11/10 16:52:57;;;;;;;2.42;1.15;;;;;;;20.52;51.67;98045.50;10498164;28;20101;-58
2022/11/10 16:58:35;;;;;;;1.98;1.10;;;;;;;20.52;51.87;98050.91;10511418;28;20085;-58
2022/11/10 17:04:14;;;;;;;1.30;1.02;;;;;;;20.53;51.99;98061.44;10521002;28;20059;-58
2022/11/10 17:09:54;;;;;;;1.42;0.95;;;;;;;20.54;52.18;98068.47;10537294;28;20063;-59
2022/11/10 17:15:34;;;;;;;1.73;1.10;;;;;;;20.56;52.57;98073.56;10553085;28;20502;-59
2022/11/10 17:21:13;;;;;;;1.60;1.08;;;;;;;20.57;52.69;98080.59;10512018;28;20063;-58
2022/11/10 17:26:51;;;;;;;;;;;;;;;20.58;52.98;98095.75;10514800;28;20511;-58
2022/11/10 17:32:29;;;;;;;1.73;1.10;;;;;;;20.58;53.06;98087.63;10514770;28;19920;-57
2022/11/10 17:38:10;;;;;;;1.38;0.98;;;;;;;20.60;53.27;98085.47;10523548;28;20079;-59
2022/11/10 17:43:50;;;;;;;1.20;0.95;;;;;;;20.62;53.36;98083.25;10492752;28;20056;-56
2022/11/10 17:49:28;;;;;;;2.13;1.10;;;;;;;20.62;53.40;98083.25;10516146;28;20075;-58
2022/11/10 17:55:21;;;;;;;1.77;0.90;;;;;;;20.63;53.64;98079.44;10508567;28;20441;-59
2022/11/10 18:01:00;;;;;;;2.33;1.30;;;;;;;20.64;53.94;98094.59;10516908;28;20048;-59
2022/11/10 18:06:38;;;;;;;2.08;1.20;;;;;;;20.67;54.22;98104.00;10538787;28;20052;-59
2022/11/10 18:12:16;;;;;;;3.20;1.60;;;;;;;20.67;54.68;98106.72;10513841;28;20060;-58
2022/11/10 18:17:55;;;;;;;2.97;1.55;;;;;;;20.67;54.74;98112.94;10520241;28;20056;-57
2022/11/10 18:23:33;;;;;;;3.05;1.15;;;;;;;20.69;54.68;98104.50;10541589;28;20050;-58
2022/11/10 18:29:11;;;;;;;;;;;;;;;20.69;55.06;98093.69;10516678;28;20101;-58
2022/11/10 18:34:50;;;;;;;2.15;1.40;;;;;;;20.70;55.13;98100.72;10533451;28;19924;-58
2022/11/10 18:40:28;;;;;;;3.13;1.30;;;;;;;20.69;55.26;98099.91;10520539;28;20400;-58
2022/11/10 18:46:06;;;;;;;2.22;1.30;;;;;;;20.69;55.35;98108.03;10532988;28;20052;-59
2022/11/10 18:51:44;;;;;;;5.35;2.40;;;;;;;20.47;46.24;98108.66;10499772;28;20056;-58
2022/11/10 18:57:22;;;;;;;4.53;2.85;;;;;;;19.91;41.89;98107.69;10507269;28;20052;-53
2022/11/10 19:03:01;;;;;;;6.40;3.03;;;;;;;19.60;41.95;98099.25;10528699;28;20060;-58
2022/11/10 19:08:39;;;;;;;4.95;3.30;;;;;;;19.87;46.30;98122.91;10539159;28;20040;-55
2022/11/10 19:14:17;;;;;;;3.88;2.78;;;;;;;20.12;48.20;98112.78;10518051;28;20036;-56
2022/11/10 19:19:56;;;;;;;3.97;2.70;;;;;;;20.27;49.42;98131.47;10543986;28;20093;-58
2022/11/10 19:25:34;;;;;;;4.55;2.60;;;;;;;20.33;48.17;98135.72;10532839;28;20047;-58
2022/11/10 19:31:14;;;;;;;4.27;2.43;;;;;;;20.40;49.68;98146.13;10500937;28;20113;-56
2022/11/10 19:36:53;;;;;;;5.32;2.60;;;;;;;20.44;50.10;98159.88;10521609;28;20290;-56
2022/11/10 19:42:31;;;;;;;3.05;2.33;;;;;;;20.46;50.50;98188.25;10484824;28;20044;-57
2022/11/10 19:48:09;;;;;;;;;;;;;;;20.48;50.93;98196.91;10523777;28;20040;-57
2022/11/10 19:54:04;;;;;;;3.03;2.22;;;;;;;20.50;51.17;98205.53;10492483;28;19927;-57
2022/11/10 19:59:42;;;;;;;4.25;2.42;;;;;;;20.51;51.47;98201.72;10500304;28;20071;-56
2022/11/10 20:05:21;;;;;;;2.83;2.28;;;;;;;20.53;51.76;98198.72;10524519;28;20053;-57
2022/11/10 20:11:08;;;;;;;4.47;2.30;;;;;;;20.54;52.03;98206.56;10492880;28;20060;-57
2022/11/10 20:16:46;;;;;;;3.05;2.10;;;;;;;20.56;52.23;98211.66;10498791;28;20060;-56
2022/11/10 20:22:24;;;;;;;3.67;1.98;;;;;;;20.57;52.47;98213.28;10539184;28;20051;-57
2022/11/10 20:28:05;;;;;;;4.25;2.03;;;;;;;20.59;52.71;98218.41;10517824;28;20060;-56
2022/11/10 20:33:44;;;;;;;3.53;2.10;;;;;;;20.61;52.85;98217.03;10517493;28;20056;-57
2022/11/10 20:39:22;;;;;;;3.80;1.85;;;;;;;20.63;52.80;98214.81;10502800;28;20079;-51
2022/11/10 20:45:01;;;;;;;2.80;1.83;;;;;;;20.62;52.88;98218.63;10522879;28;20086;-59
2022/11/10 20:50:39;;;;;;;3.38;2.00;;;;;;;20.64;53.13;98227.28;10501452;28;20051;-59
2022/11/10 20:56:17;;;;;;;3.35;2.10;;;;;;;20.65;53.16;98218.03;10471753;28;20411;-54
2022/11/10 21:01:56;;;;;;;2.30;1.80;;;;;;;20.67;53.15;98223.16;10532092;28;20048;-59
2022/11/10 21:07:34;;;;;;;3.85;2.00;;;;;;;20.69;53.41;98218.25;10496705;28;20055;-57
2022/11/10 21:13:12;;;;;;;2.50;1.73;;;;;;;20.71;53.59;98216.84;10526585;28;20040;-59
2022/11/10 21:18:54;;;;;;;4.18;1.73;;;;;;;20.73;53.71;98222.75;10510409;28;20056;-55
2022/11/10 21:24:32;;;;;;;2.20;1.70;;;;;;;20.75;53.76;98227.88;10525730;28;20063;-56
2022/11/10 21:30:21;;;;;;;3.75;1.75;;;;;;;20.77;54.06;98230.31;10506304;28;20040;-58
2022/11/10 21:36:06;;;;;;;1.85;1.65;;;;;;;20.76;54.54;98234.09;10498205;28;20052;-57
2022/11/10 21:41:44;;;;;;;4.60;1.70;;;;;;;20.76;54.66;98251.19;10495797;28;20053;-57
2022/11/10 21:47:22;;;;;;;4.95;2.00;;;;;;;20.76;54.47;98250.34;10511100;28;20048;-51
2022/11/10 21:53:04;;;;;;;;;;;;;;;20.77;54.60;98241.13;10510972;28;20056;-58
2022/11/10 21:58:43;;;;;;;2.20;1.60;;;;;;;20.77;54.39;98239.22;10509302;28;19935;-58
2022/11/10 22:04:21;;;;;;;1.70;1.60;;;;;;;20.78;54.54;98242.72;10515517;28;20048;-59
2022/11/10 22:21:53;;;;;;;3.67;1.58;;;;;;;20.77;54.40;98220.25;10529156;28;20062;-57
2022/11/10 22:27:31;;;;;;;2.47;1.77;;;;;;;20.77;54.61;98228.38;10501121;28;20053;-57
2022/11/10 22:33:29;;;;;;;3.15;1.60;;;;;;;20.76;54.67;98234.94;10521225;28;20059;-57
2022/11/10 22:39:09;;;;;;;3.05;1.60;;;;;;;20.77;54.71;98233.00;10527841;28;20044;-58
2022/11/10 22:44:47;;;;;;;2.53;1.70;;;;;;;20.77;54.68;98227.59;10522710;28;20399;-57
2022/11/10 22:50:25;;;;;;;2.28;1.77;;;;;;;20.76;54.62;98229.50;10514347;28;20048;-58
2022/11/10 22:56:04;;;;;;;3.17;1.50;;;;;;;20.75;54.70;98222.47;10526846;28;20070;-59
2022/11/10 23:01:43;;;;;;;2.35;1.52;;;;;;;20.74;54.73;98216.25;10493654;28;20082;-57
2022/11/10 23:07:21;;;;;;;2.38;1.60;;;;;;;20.75;54.73;98222.47;10500149;28;20400;-58
2022/11/10 23:13:00;;;;;;;1.95;1.52;;;;;;;20.74;54.64;98220.88;10496681;28;20118;-57
2022/11/10 23:18:40;;;;;;;;;;;;;;;20.72;54.76;98218.47;10500977;28;20049;-58
2022/11/10 23:24:21;;;;;;;1.40;1.15;;;;;;;20.72;54.70;98223.88;10491963;28;20371;-57
2022/11/10 23:30:00;;;;;;;1.67;1.20;;;;;;;20.72;54.79;98228.50;10499756;28;20049;-58
2022/11/10 23:35:38;;;;;;;2.70;1.50;;;;;;;20.70;54.83;98223.38;10538492;28;20063;-58
2022/11/10 23:41:19;;;;;;;1.50;1.27;;;;;;;20.69;54.94;98229.88;10508802;28;20090;-58
2022/11/10 23:46:57;;;;;;;3.22;1.50;;;;;;;20.69;55.03;98239.91;10507215;28;20052;-57
2022/11/10 23:52:36;;;;;;;2.38;1.20;;;;;;;20.68;54.94;98244.53;10512296;28;20051;-57
2022/11/10 23:58:14;;;;;;;1.73;1.50;;;;;;;20.67;54.98;98242.91;10515269;28;20110;-58
